sensor_id;sensor_type;location;lat;lon;timestamp;temperature;humidity
46091;DHT22;31826;53.572;10.170;2023-06-01T00:00:01;13.20;99.90
46091;DHT22;31826;53.572;10.170;2023-06-01T00:02:26;13.10;99.90
46091;DHT22;31826;53.572;10.170;2023-06-01T00:04:52;13.20;99.90
46091;DHT22;31826;53.572;10.170;2023-06-01T00:07:18;13.10;99.90
46091;DHT22;31826;53.572;10.170;2023-06-01T00:09:43;13.10;99.90
46091;DHT22;31826;53.572;10.170;2023-06-01T00:12:09;13.10;99.90
46091;DHT22;31826;53.572;10.170;2023-06-01T00:14:35;12.80;99.90
46091;DHT22;31826;53.572;10.170;2023-06-01T00:17:01;12.70;99.90
46091;DHT22;31826;53.572;10.170;2023-06-01T00:19:28;12.70;99.90
46091;DHT22;31826;53.572;10.170;2023-06-01T00:21:54;12.60;99.90
46091;DHT22;31826;53.572;10.170;2023-06-01T00:24:21;12.80;99.90
46091;DHT22;31826;53.572;10.170;2023-06-01T00:26:47;13.00;99.90
46091;DHT22;31826;53.572;10.170;2023-06-01T00:29:13;13.10;99.90
46091;DHT22;31826;53.572;10.170;2023-06-01T00:31:39;13.20;99.90
46091;DHT22;31826;53.572;10.170;2023-06-01T00:34:04;13.30;99.90
46091;DHT22;31826;53.572;10.170;2023-06-01T00:36:30;13.30;99.90
46091;DHT22;31826;53.572;10.170;2023-06-01T00:38:56;13.30;99.90
46091;DHT22;31826;53.572;10.170;2023-06-01T00:41:28;13.30;99.90
46091;DHT22;31826;53.572;10.170;2023-06-01T00:43:54;13.10;99.90
46091;DHT22;31826;53.572;10.170;2023-06-01T00:46:19;12.90;99.90
46091;DHT22;31826;53.572;10.170;2023-06-01T00:48:45;12.90;99.90
46091;DHT22;31826;53.572;10.170;2023-06-01T00:51:11;12.70;99.90
46091;DHT22;31826;53.572;10.170;2023-06-01T00:53:38;12.80;99.90
46091;DHT22;31826;53.572;10.170;2023-06-01T00:56:03;13.00;99.90
46091;DHT22;31826;53.572;10.170;2023-06-01T00:58:30;13.00;99.90
46091;DHT22;31826;53.572;10.170;2023-06-01T01:00:56;13.00;99.90
46091;DHT22;31826;53.572;10.170;2023-06-01T01:03:21;13.00;99.90
46091;DHT22;31826;53.572;10.170;2023-06-01T01:05:57;13.10;99.90
46091;DHT22;31826;53.572;10.170;2023-06-01T01:08:32;13.10;99.90
46091;DHT22;31826;53.572;10.170;2023-06-01T01:11:07;13.10;99.90
46091;DHT22;31826;53.572;10.170;2023-06-01T01:13:45;12.90;99.90
46091;DHT22;31826;53.572;10.170;2023-06-01T01:16:28;12.80;99.90
46091;DHT22;31826;53.572;10.170;2023-06-01T01:21:55;13.10;99.90
46091;DHT22;31826;53.572;10.170;2023-06-01T01:27:38;13.30;99.90
46091;DHT22;31826;53.572;10.170;2023-06-01T01:30:06;13.20;99.90
46091;DHT22;31826;53.572;10.170;2023-06-01T01:32:33;13.20;99.90
46091;DHT22;31826;53.572;10.170;2023-06-01T01:35:01;13.30;99.90
46091;DHT22;31826;53.572;10.170;2023-06-01T01:37:28;13.40;99.90
46091;DHT22;31826;53.572;10.170;2023-06-01T01:39:54;13.60;99.90
46091;DHT22;31826;53.572;10.170;2023-06-01T01:42:19;13.40;99.90
46091;DHT22;31826;53.572;10.170;2023-06-01T01:44:46;13.50;99.90
46091;DHT22;31826;53.572;10.170;2023-06-01T01:49:49;13.50;99.90
46091;DHT22;31826;53.572;10.170;2023-06-01T01:52:25;13.50;99.90
46091;DHT22;31826;53.572;10.170;2023-06-01T01:54:52;13.50;99.90
46091;DHT22;31826;53.572;10.170;2023-06-01T01:57:19;13.50;99.90
46091;DHT22;31826;53.572;10.170;2023-06-01T01:59:48;13.50;99.90
46091;DHT22;31826;53.572;10.170;2023-06-01T02:02:14;13.60;99.90
46091;DHT22;31826;53.572;10.170;2023-06-01T02:04:41;13.50;99.90
46091;DHT22;31826;53.572;10.170;2023-06-01T02:07:07;13.50;99.90
46091;DHT22;31826;53.572;10.170;2023-06-01T02:09:33;13.40;99.90
46091;DHT22;31826;53.572;10.170;2023-06-01T02:11:59;13.40;99.90
46091;DHT22;31826;53.572;10.170;2023-06-01T02:14:25;13.60;99.90
46091;DHT22;31826;53.572;10.170;2023-06-01T02:16:51;13.40;99.90
46091;DHT22;31826;53.572;10.170;2023-06-01T02:19:19;13.30;99.90
46091;DHT22;31826;53.572;10.170;2023-06-01T02:21:45;13.30;99.90
46091;DHT22;31826;53.572;10.170;2023-06-01T02:24:11;13.10;99.90
46091;DHT22;31826;53.572;10.170;2023-06-01T02:26:36;13.20;99.90
46091;DHT22;31826;53.572;10.170;2023-06-01T02:29:02;13.20;99.90
46091;DHT22;31826;53.572;10.170;2023-06-01T02:31:31;13.20;99.90
46091;DHT22;31826;53.572;10.170;2023-06-01T02:33:58;13.10;99.90
46091;DHT22;31826;53.572;10.170;2023-06-01T02:36:28;13.20;99.90
46091;DHT22;31826;53.572;10.170;2023-06-01T02:38:55;13.20;99.90
46091;DHT22;31826;53.572;10.170;2023-06-01T02:41:21;13.20;99.90
46091;DHT22;31826;53.572;10.170;2023-06-01T02:43:50;13.00;99.90
46091;DHT22;31826;53.572;10.170;2023-06-01T02:46:19;12.70;99.90
46091;DHT22;31826;53.572;10.170;2023-06-01T02:48:45;12.40;99.90
46091;DHT22;31826;53.572;10.170;2023-06-01T02:51:12;12.40;99.90
46091;DHT22;31826;53.572;10.170;2023-06-01T02:53:41;12.30;99.90
46091;DHT22;31826;53.572;10.170;2023-06-01T02:56:07;12.50;99.90
46091;DHT22;31826;53.572;10.170;2023-06-01T02:58:33;12.50;99.90
46091;DHT22;31826;53.572;10.170;2023-06-01T03:00:58;12.40;99.90
46091;DHT22;31826;53.572;10.170;2023-06-01T03:03:24;12.40;99.90
46091;DHT22;31826;53.572;10.170;2023-06-01T03:05:51;12.30;99.90
46091;DHT22;31826;53.572;10.170;2023-06-01T03:08:17;12.30;99.90
46091;DHT22;31826;53.572;10.170;2023-06-01T03:10:43;12.30;99.90
46091;DHT22;31826;53.572;10.170;2023-06-01T03:13:09;12.50;99.90
46091;DHT22;31826;53.572;10.170;2023-06-01T03:15:35;12.50;99.90
46091;DHT22;31826;53.572;10.170;2023-06-01T03:18:03;12.30;99.90
46091;DHT22;31826;53.572;10.170;2023-06-01T03:20:29;12.40;99.90
46091;DHT22;31826;53.572;10.170;2023-06-01T03:22:55;12.30;99.90
46091;DHT22;31826;53.572;10.170;2023-06-01T03:25:21;12.30;99.90
46091;DHT22;31826;53.572;10.170;2023-06-01T03:27:46;12.10;99.90
46091;DHT22;31826;53.572;10.170;2023-06-01T03:30:12;12.10;99.90
46091;DHT22;31826;53.572;10.170;2023-06-01T03:32:43;12.20;99.90
46091;DHT22;31826;53.572;10.170;2023-06-01T03:35:13;12.20;99.90
46091;DHT22;31826;53.572;10.170;2023-06-01T03:37:40;12.30;99.90
46091;DHT22;31826;53.572;10.170;2023-06-01T03:40:07;12.20;99.90
46091;DHT22;31826;53.572;10.170;2023-06-01T03:42:38;12.10;99.90
46091;DHT22;31826;53.572;10.170;2023-06-01T03:45:04;12.20;99.90
46091;DHT22;31826;53.572;10.170;2023-06-01T03:47:31;12.30;99.90
46091;DHT22;31826;53.572;10.170;2023-06-01T03:49:57;12.40;99.90
46091;DHT22;31826;53.572;10.170;2023-06-01T03:52:27;12.60;99.90
46091;DHT22;31826;53.572;10.170;2023-06-01T03:54:54;12.60;99.90
46091;DHT22;31826;53.572;10.170;2023-06-01T03:57:20;12.50;99.90
46091;DHT22;31826;53.572;10.170;2023-06-01T03:59:46;12.60;99.90
46091;DHT22;31826;53.572;10.170;2023-06-01T04:02:12;12.40;99.90
46091;DHT22;31826;53.572;10.170;2023-06-01T04:04:38;12.40;99.90
46091;DHT22;31826;53.572;10.170;2023-06-01T04:07:06;12.40;99.90
46091;DHT22;31826;53.572;10.170;2023-06-01T04:09:32;12.40;99.90
46091;DHT22;31826;53.572;10.170;2023-06-01T04:11:58;12.50;99.90
46091;DHT22;31826;53.572;10.170;2023-06-01T04:14:24;12.60;99.90
46091;DHT22;31826;53.572;10.170;2023-06-01T04:16:50;12.70;99.90
46091;DHT22;31826;53.572;10.170;2023-06-01T04:19:15;12.70;99.90
46091;DHT22;31826;53.572;10.170;2023-06-01T04:21:42;12.70;99.90
46091;DHT22;31826;53.572;10.170;2023-06-01T04:24:08;12.60;99.90
46091;DHT22;31826;53.572;10.170;2023-06-01T04:26:35;12.60;99.90
46091;DHT22;31826;53.572;10.170;2023-06-01T04:29:01;12.70;99.90
46091;DHT22;31826;53.572;10.170;2023-06-01T04:31:28;12.90;99.90
46091;DHT22;31826;53.572;10.170;2023-06-01T04:33:54;13.00;99.90
46091;DHT22;31826;53.572;10.170;2023-06-01T04:36:24;13.20;99.90
46091;DHT22;31826;53.572;10.170;2023-06-01T04:38:50;13.30;99.90
46091;DHT22;31826;53.572;10.170;2023-06-01T04:41:20;13.20;99.90
46091;DHT22;31826;53.572;10.170;2023-06-01T04:43:53;13.00;99.90
46091;DHT22;31826;53.572;10.170;2023-06-01T04:46:20;12.80;99.90
46091;DHT22;31826;53.572;10.170;2023-06-01T04:48:48;12.70;99.90
46091;DHT22;31826;53.572;10.170;2023-06-01T04:51:14;12.60;99.90
46091;DHT22;31826;53.572;10.170;2023-06-01T04:53:47;12.60;99.90
46091;DHT22;31826;53.572;10.170;2023-06-01T04:56:24;12.70;99.90
46091;DHT22;31826;53.572;10.170;2023-06-01T04:58:52;12.60;99.90
46091;DHT22;31826;53.572;10.170;2023-06-01T05:01:19;12.70;99.90
46091;DHT22;31826;53.572;10.170;2023-06-01T05:03:46;12.80;99.90
46091;DHT22;31826;53.572;10.170;2023-06-01T05:06:12;12.80;99.90
46091;DHT22;31826;53.572;10.170;2023-06-01T05:08:39;13.00;99.90
46091;DHT22;31826;53.572;10.170;2023-06-01T05:11:06;13.00;99.90
46091;DHT22;31826;53.572;10.170;2023-06-01T05:13:36;12.80;99.90
46091;DHT22;31826;53.572;10.170;2023-06-01T05:16:06;12.80;99.90
46091;DHT22;31826;53.572;10.170;2023-06-01T05:18:32;13.00;99.90
46091;DHT22;31826;53.572;10.170;2023-06-01T05:20:58;13.10;99.90
46091;DHT22;31826;53.572;10.170;2023-06-01T05:23:25;12.80;99.90
46091;DHT22;31826;53.572;10.170;2023-06-01T05:25:52;12.70;99.90
46091;DHT22;31826;53.572;10.170;2023-06-01T05:28:20;12.60;99.90
46091;DHT22;31826;53.572;10.170;2023-06-01T05:30:46;12.50;99.90
46091;DHT22;31826;53.572;10.170;2023-06-01T05:33:12;12.50;99.90
46091;DHT22;31826;53.572;10.170;2023-06-01T05:35:38;12.60;99.90
46091;DHT22;31826;53.572;10.170;2023-06-01T05:38:04;12.70;99.90
46091;DHT22;31826;53.572;10.170;2023-06-01T05:40:30;12.80;99.90
46091;DHT22;31826;53.572;10.170;2023-06-01T05:42:55;13.10;99.90
46091;DHT22;31826;53.572;10.170;2023-06-01T05:45:21;13.20;99.90
46091;DHT22;31826;53.572;10.170;2023-06-01T05:47:47;13.10;99.90
46091;DHT22;31826;53.572;10.170;2023-06-01T05:50:13;13.00;99.90
46091;DHT22;31826;53.572;10.170;2023-06-01T05:52:38;13.00;99.90
46091;DHT22;31826;53.572;10.170;2023-06-01T05:55:07;13.20;99.90
46091;DHT22;31826;53.572;10.170;2023-06-01T05:57:33;13.40;99.90
46091;DHT22;31826;53.572;10.170;2023-06-01T05:59:58;13.30;99.90
46091;DHT22;31826;53.572;10.170;2023-06-01T06:02:24;13.30;99.90
46091;DHT22;31826;53.572;10.170;2023-06-01T06:04:50;13.00;99.90
46091;DHT22;31826;53.572;10.170;2023-06-01T06:07:15;12.90;99.90
46091;DHT22;31826;53.572;10.170;2023-06-01T06:09:41;12.80;99.90
46091;DHT22;31826;53.572;10.170;2023-06-01T06:12:07;12.70;99.90
46091;DHT22;31826;53.572;10.170;2023-06-01T06:14:33;12.60;99.90
46091;DHT22;31826;53.572;10.170;2023-06-01T06:16:59;12.70;99.90
46091;DHT22;31826;53.572;10.170;2023-06-01T06:19:25;12.80;99.90
46091;DHT22;31826;53.572;10.170;2023-06-01T06:21:52;13.00;99.90
46091;DHT22;31826;53.572;10.170;2023-06-01T06:24:19;12.80;99.90
46091;DHT22;31826;53.572;10.170;2023-06-01T06:26:45;12.90;99.90
46091;DHT22;31826;53.572;10.170;2023-06-01T06:29:14;12.90;99.90
46091;DHT22;31826;53.572;10.170;2023-06-01T06:31:39;13.00;99.90
46091;DHT22;31826;53.572;10.170;2023-06-01T06:34:07;13.00;99.90
46091;DHT22;31826;53.572;10.170;2023-06-01T06:36:34;13.00;99.90
46091;DHT22;31826;53.572;10.170;2023-06-01T06:39:02;12.80;99.90
46091;DHT22;31826;53.572;10.170;2023-06-01T06:41:28;12.70;99.90
46091;DHT22;31826;53.572;10.170;2023-06-01T06:43:53;12.80;99.90
46091;DHT22;31826;53.572;10.170;2023-06-01T06:46:19;12.80;99.90
46091;DHT22;31826;53.572;10.170;2023-06-01T06:48:45;12.70;99.90
46091;DHT22;31826;53.572;10.170;2023-06-01T06:51:10;12.80;99.90
46091;DHT22;31826;53.572;10.170;2023-06-01T06:53:36;12.80;99.90
46091;DHT22;31826;53.572;10.170;2023-06-01T06:56:02;12.90;99.90
46091;DHT22;31826;53.572;10.170;2023-06-01T06:58:27;13.00;99.90
46091;DHT22;31826;53.572;10.170;2023-06-01T07:00:53;13.20;99.90
46091;DHT22;31826;53.572;10.170;2023-06-01T07:03:19;13.40;99.90
46091;DHT22;31826;53.572;10.170;2023-06-01T07:05:44;13.30;99.90
46091;DHT22;31826;53.572;10.170;2023-06-01T07:08:11;13.40;99.90
46091;DHT22;31826;53.572;10.170;2023-06-01T07:10:36;13.40;99.90
46091;DHT22;31826;53.572;10.170;2023-06-01T07:13:02;13.40;99.90
46091;DHT22;31826;53.572;10.170;2023-06-01T07:15:28;13.50;99.90
46091;DHT22;31826;53.572;10.170;2023-06-01T07:17:54;13.30;99.90
46091;DHT22;31826;53.572;10.170;2023-06-01T07:20:19;13.40;99.90
46091;DHT22;31826;53.572;10.170;2023-06-01T07:22:45;13.60;99.90
46091;DHT22;31826;53.572;10.170;2023-06-01T07:25:11;13.80;99.90
46091;DHT22;31826;53.572;10.170;2023-06-01T07:27:39;13.80;99.90
46091;DHT22;31826;53.572;10.170;2023-06-01T07:30:09;14.00;99.90
46091;DHT22;31826;53.572;10.170;2023-06-01T07:32:36;13.90;99.90
46091;DHT22;31826;53.572;10.170;2023-06-01T07:35:02;13.70;99.90
46091;DHT22;31826;53.572;10.170;2023-06-01T07:37:30;13.50;99.90
46091;DHT22;31826;53.572;10.170;2023-06-01T07:39:57;13.60;99.90
46091;DHT22;31826;53.572;10.170;2023-06-01T07:42:22;13.80;99.90
46091;DHT22;31826;53.572;10.170;2023-06-01T07:44:48;14.10;99.90
46091;DHT22;31826;53.572;10.170;2023-06-01T07:47:14;14.30;99.90
46091;DHT22;31826;53.572;10.170;2023-06-01T07:49:40;14.40;99.90
46091;DHT22;31826;53.572;10.170;2023-06-01T07:52:07;14.50;99.90
46091;DHT22;31826;53.572;10.170;2023-06-01T07:54:35;14.20;99.90
46091;DHT22;31826;53.572;10.170;2023-06-01T07:57:05;14.10;99.90
46091;DHT22;31826;53.572;10.170;2023-06-01T07:59:34;14.20;99.90
46091;DHT22;31826;53.572;10.170;2023-06-01T08:01:59;14.00;99.90
46091;DHT22;31826;53.572;10.170;2023-06-01T08:04:26;14.20;99.90
46091;DHT22;31826;53.572;10.170;2023-06-01T08:06:52;14.20;99.90
46091;DHT22;31826;53.572;10.170;2023-06-01T08:09:19;14.30;99.90
46091;DHT22;31826;53.572;10.170;2023-06-01T08:11:45;14.40;99.90
46091;DHT22;31826;53.572;10.170;2023-06-01T08:14:11;14.30;99.90
46091;DHT22;31826;53.572;10.170;2023-06-01T08:16:37;14.30;99.90
46091;DHT22;31826;53.572;10.170;2023-06-01T08:19:03;14.40;99.90
46091;DHT22;31826;53.572;10.170;2023-06-01T08:21:29;14.30;99.90
46091;DHT22;31826;53.572;10.170;2023-06-01T08:23:55;14.20;99.90
46091;DHT22;31826;53.572;10.170;2023-06-01T08:26:22;14.50;99.90
46091;DHT22;31826;53.572;10.170;2023-06-01T08:28:47;14.70;99.90
46091;DHT22;31826;53.572;10.170;2023-06-01T08:31:21;15.20;99.90
46091;DHT22;31826;53.572;10.170;2023-06-01T08:33:48;15.40;99.90
46091;DHT22;31826;53.572;10.170;2023-06-01T08:36:14;15.60;99.90
46091;DHT22;31826;53.572;10.170;2023-06-01T08:38:41;15.50;99.90
46091;DHT22;31826;53.572;10.170;2023-06-01T08:41:40;15.70;99.90
46091;DHT22;31826;53.572;10.170;2023-06-01T08:44:08;15.50;99.90
46091;DHT22;31826;53.572;10.170;2023-06-01T08:46:36;15.50;99.90
46091;DHT22;31826;53.572;10.170;2023-06-01T08:49:02;15.40;99.90
46091;DHT22;31826;53.572;10.170;2023-06-01T08:51:32;15.10;99.90
46091;DHT22;31826;53.572;10.170;2023-06-01T08:54:00;14.90;99.90
46091;DHT22;31826;53.572;10.170;2023-06-01T08:56:28;14.80;99.90
46091;DHT22;31826;53.572;10.170;2023-06-01T08:58:54;14.80;99.90
46091;DHT22;31826;53.572;10.170;2023-06-01T09:01:20;14.80;99.90
46091;DHT22;31826;53.572;10.170;2023-06-01T09:03:49;15.00;99.90
46091;DHT22;31826;53.572;10.170;2023-06-01T09:06:16;15.40;99.90
46091;DHT22;31826;53.572;10.170;2023-06-01T09:08:42;15.50;99.90
46091;DHT22;31826;53.572;10.170;2023-06-01T09:11:08;15.60;99.90
46091;DHT22;31826;53.572;10.170;2023-06-01T09:13:38;15.40;99.90
46091;DHT22;31826;53.572;10.170;2023-06-01T09:16:04;15.30;99.90
46091;DHT22;31826;53.572;10.170;2023-06-01T09:18:30;15.20;99.90
46091;DHT22;31826;53.572;10.170;2023-06-01T09:21:16;15.30;99.90
46091;DHT22;31826;53.572;10.170;2023-06-01T09:23:42;15.40;99.90
46091;DHT22;31826;53.572;10.170;2023-06-01T09:26:11;15.70;99.90
46091;DHT22;31826;53.572;10.170;2023-06-01T09:28:54;15.90;99.90
46091;DHT22;31826;53.572;10.170;2023-06-01T09:31:36;15.70;99.90
46091;DHT22;31826;53.572;10.170;2023-06-01T09:34:02;15.80;99.90
46091;DHT22;31826;53.572;10.170;2023-06-01T09:36:28;15.90;99.90
46091;DHT22;31826;53.572;10.170;2023-06-01T09:39:11;16.00;99.90
46091;DHT22;31826;53.572;10.170;2023-06-01T09:41:56;16.00;99.90
46091;DHT22;31826;53.572;10.170;2023-06-01T09:44:30;15.80;99.90
46091;DHT22;31826;53.572;10.170;2023-06-01T09:47:00;15.70;99.90
46091;DHT22;31826;53.572;10.170;2023-06-01T09:49:40;15.70;99.90
46091;DHT22;31826;53.572;10.170;2023-06-01T09:54:43;15.50;99.90
46091;DHT22;31826;53.572;10.170;2023-06-01T09:57:10;15.60;99.80
46091;DHT22;31826;53.572;10.170;2023-06-01T09:59:44;15.40;99.90
46091;DHT22;31826;53.572;10.170;2023-06-01T10:02:18;15.30;99.90
46091;DHT22;31826;53.572;10.170;2023-06-01T10:04:49;15.40;99.90
46091;DHT22;31826;53.572;10.170;2023-06-01T10:07:16;15.60;99.90
46091;DHT22;31826;53.572;10.170;2023-06-01T10:09:45;15.80;99.70
46091;DHT22;31826;53.572;10.170;2023-06-01T10:12:14;15.70;99.20
46091;DHT22;31826;53.572;10.170;2023-06-01T10:14:40;15.80;99.60
46091;DHT22;31826;53.572;10.170;2023-06-01T10:17:07;15.90;99.00
46091;DHT22;31826;53.572;10.170;2023-06-01T10:19:33;15.80;99.00
46091;DHT22;31826;53.572;10.170;2023-06-01T10:22:02;15.90;99.10
46091;DHT22;31826;53.572;10.170;2023-06-01T10:24:28;15.80;99.10
46091;DHT22;31826;53.572;10.170;2023-06-01T10:27:21;16.00;98.90
46091;DHT22;31826;53.572;10.170;2023-06-01T10:29:48;16.20;99.10
46091;DHT22;31826;53.572;10.170;2023-06-01T10:32:45;16.10;98.80
46091;DHT22;31826;53.572;10.170;2023-06-01T10:38:22;16.70;98.20
46091;DHT22;31826;53.572;10.170;2023-06-01T10:40:48;16.80;97.60
46091;DHT22;31826;53.572;10.170;2023-06-01T10:46:01;17.30;95.20
46091;DHT22;31826;53.572;10.170;2023-06-01T10:48:55;17.30;96.20
46091;DHT22;31826;53.572;10.170;2023-06-01T10:51:22;16.90;96.00
46091;DHT22;31826;53.572;10.170;2023-06-01T10:53:51;17.10;95.90
46091;DHT22;31826;53.572;10.170;2023-06-01T10:56:24;17.10;95.50
46091;DHT22;31826;53.572;10.170;2023-06-01T11:01:34;17.60;95.10
46091;DHT22;31826;53.572;10.170;2023-06-01T11:04:01;17.50;94.90
46091;DHT22;31826;53.572;10.170;2023-06-01T11:06:31;17.30;95.30
46091;DHT22;31826;53.572;10.170;2023-06-01T11:09:00;17.40;95.30
46091;DHT22;31826;53.572;10.170;2023-06-01T11:14:26;18.50;94.60
46091;DHT22;31826;53.572;10.170;2023-06-01T11:16:55;18.60;93.90
46091;DHT22;31826;53.572;10.170;2023-06-01T11:19:25;18.10;93.20
46091;DHT22;31826;53.572;10.170;2023-06-01T11:21:59;17.90;94.10
46091;DHT22;31826;53.572;10.170;2023-06-01T11:24:35;17.70;94.10
46091;DHT22;31826;53.572;10.170;2023-06-01T11:27:08;17.50;94.70
46091;DHT22;31826;53.572;10.170;2023-06-01T11:29:34;17.50;95.00
46091;DHT22;31826;53.572;10.170;2023-06-01T11:32:02;17.30;95.10
46091;DHT22;31826;53.572;10.170;2023-06-01T11:34:35;17.50;96.00
46091;DHT22;31826;53.572;10.170;2023-06-01T11:37:04;17.50;95.40
46091;DHT22;31826;53.572;10.170;2023-06-01T11:39:30;17.20;96.00
46091;DHT22;31826;53.572;10.170;2023-06-01T11:42:23;17.20;95.50
46091;DHT22;31826;53.572;10.170;2023-06-01T11:44:59;17.20;95.60
46091;DHT22;31826;53.572;10.170;2023-06-01T11:47:29;17.10;95.30
46091;DHT22;31826;53.572;10.170;2023-06-01T11:49:58;17.20;96.00
46091;DHT22;31826;53.572;10.170;2023-06-01T11:52:24;17.10;95.90
46091;DHT22;31826;53.572;10.170;2023-06-01T11:54:49;16.90;96.10
46091;DHT22;31826;53.572;10.170;2023-06-01T11:57:17;16.90;96.20
46091;DHT22;31826;53.572;10.170;2023-06-01T11:59:49;16.60;95.90
46091;DHT22;31826;53.572;10.170;2023-06-01T12:02:21;16.90;96.20
46091;DHT22;31826;53.572;10.170;2023-06-01T12:05:04;17.10;95.50
46091;DHT22;31826;53.572;10.170;2023-06-01T12:07:50;17.00;95.80
46091;DHT22;31826;53.572;10.170;2023-06-01T12:10:20;17.20;96.30
46091;DHT22;31826;53.572;10.170;2023-06-01T12:12:46;17.60;95.60
46091;DHT22;31826;53.572;10.170;2023-06-01T12:15:17;17.80;95.40
46091;DHT22;31826;53.572;10.170;2023-06-01T12:17:54;17.60;94.90
46091;DHT22;31826;53.572;10.170;2023-06-01T12:20:31;17.50;95.60
46091;DHT22;31826;53.572;10.170;2023-06-01T12:22:59;17.70;95.20
46091;DHT22;31826;53.572;10.170;2023-06-01T12:25:28;17.90;95.70
46091;DHT22;31826;53.572;10.170;2023-06-01T12:28:06;18.10;94.50
46091;DHT22;31826;53.572;10.170;2023-06-01T12:30:33;18.10;94.00
46091;DHT22;31826;53.572;10.170;2023-06-01T12:32:59;18.00;94.30
46091;DHT22;31826;53.572;10.170;2023-06-01T12:35:26;18.00;95.00
46091;DHT22;31826;53.572;10.170;2023-06-01T12:38:19;18.20;95.90
46091;DHT22;31826;53.572;10.170;2023-06-01T12:41:09;18.80;94.10
46091;DHT22;31826;53.572;10.170;2023-06-01T12:43:47;18.90;92.70
46091;DHT22;31826;53.572;10.170;2023-06-01T12:46:27;18.70;93.30
46091;DHT22;31826;53.572;10.170;2023-06-01T12:49:11;19.10;94.40
46091;DHT22;31826;53.572;10.170;2023-06-01T12:51:37;18.70;92.50
46091;DHT22;31826;53.572;10.170;2023-06-01T12:54:03;18.60;92.80
46091;DHT22;31826;53.572;10.170;2023-06-01T12:56:29;18.70;92.90
46091;DHT22;31826;53.572;10.170;2023-06-01T12:58:55;18.80;93.70
46091;DHT22;31826;53.572;10.170;2023-06-01T13:01:21;18.80;92.80
46091;DHT22;31826;53.572;10.170;2023-06-01T13:03:47;19.10;92.10
46091;DHT22;31826;53.572;10.170;2023-06-01T13:06:15;19.00;91.80
46091;DHT22;31826;53.572;10.170;2023-06-01T13:08:42;19.10;93.00
46091;DHT22;31826;53.572;10.170;2023-06-01T13:11:08;19.30;92.20
46091;DHT22;31826;53.572;10.170;2023-06-01T13:13:34;19.30;92.60
46091;DHT22;31826;53.572;10.170;2023-06-01T13:16:00;19.80;92.30
46091;DHT22;31826;53.572;10.170;2023-06-01T13:18:27;19.80;91.90
46091;DHT22;31826;53.572;10.170;2023-06-01T13:20:52;19.80;91.20
46091;DHT22;31826;53.572;10.170;2023-06-01T13:23:18;20.00;91.80
46091;DHT22;31826;53.572;10.170;2023-06-01T13:25:44;20.20;90.90
46091;DHT22;31826;53.572;10.170;2023-06-01T13:28:10;20.00;90.60
46091;DHT22;31826;53.572;10.170;2023-06-01T13:30:36;20.20;90.40
46091;DHT22;31826;53.572;10.170;2023-06-01T13:33:01;19.50;90.60
46091;DHT22;31826;53.572;10.170;2023-06-01T13:35:27;19.20;91.80
46091;DHT22;31826;53.572;10.170;2023-06-01T13:37:53;19.10;92.20
46091;DHT22;31826;53.572;10.170;2023-06-01T13:40:19;19.50;92.60
46091;DHT22;31826;53.572;10.170;2023-06-01T13:42:49;19.10;92.00
46091;DHT22;31826;53.572;10.170;2023-06-01T13:45:16;19.00;92.00
46091;DHT22;31826;53.572;10.170;2023-06-01T13:47:42;18.50;93.10
46091;DHT22;31826;53.572;10.170;2023-06-01T13:50:08;18.70;92.60
46091;DHT22;31826;53.572;10.170;2023-06-01T13:52:34;18.90;92.40
46091;DHT22;31826;53.572;10.170;2023-06-01T13:55:00;19.10;91.90
46091;DHT22;31826;53.572;10.170;2023-06-01T13:57:25;18.90;92.00
46091;DHT22;31826;53.572;10.170;2023-06-01T13:59:51;19.00;92.30
46091;DHT22;31826;53.572;10.170;2023-06-01T14:02:16;19.40;92.40
46091;DHT22;31826;53.572;10.170;2023-06-01T14:04:42;20.00;92.60
46091;DHT22;31826;53.572;10.170;2023-06-01T14:07:08;20.20;91.30
46091;DHT22;31826;53.572;10.170;2023-06-01T14:09:34;19.90;90.20
46091;DHT22;31826;53.572;10.170;2023-06-01T14:12:00;19.20;91.50
46091;DHT22;31826;53.572;10.170;2023-06-01T14:14:25;19.10;92.20
46091;DHT22;31826;53.572;10.170;2023-06-01T14:16:51;19.50;92.70
46091;DHT22;31826;53.572;10.170;2023-06-01T14:19:17;19.70;91.10
46091;DHT22;31826;53.572;10.170;2023-06-01T14:21:42;20.20;91.40
46091;DHT22;31826;53.572;10.170;2023-06-01T14:24:08;20.00;89.30
46091;DHT22;31826;53.572;10.170;2023-06-01T14:26:34;20.00;90.80
46091;DHT22;31826;53.572;10.170;2023-06-01T14:29:00;20.30;90.70
46091;DHT22;31826;53.572;10.170;2023-06-01T14:31:25;20.50;88.90
46091;DHT22;31826;53.572;10.170;2023-06-01T14:33:51;20.50;90.40
46091;DHT22;31826;53.572;10.170;2023-06-01T14:36:17;20.60;90.00
46091;DHT22;31826;53.572;10.170;2023-06-01T14:38:45;20.30;90.30
46091;DHT22;31826;53.572;10.170;2023-06-01T14:41:11;20.70;90.20
46091;DHT22;31826;53.572;10.170;2023-06-01T14:43:36;21.10;89.70
46091;DHT22;31826;53.572;10.170;2023-06-01T14:46:04;20.00;87.00
46091;DHT22;31826;53.572;10.170;2023-06-01T14:48:30;20.00;89.90
46091;DHT22;31826;53.572;10.170;2023-06-01T14:50:56;19.20;89.70
46091;DHT22;31826;53.572;10.170;2023-06-01T14:53:21;19.10;90.40
46091;DHT22;31826;53.572;10.170;2023-06-01T14:55:47;19.00;90.50
46091;DHT22;31826;53.572;10.170;2023-06-01T14:58:13;18.70;90.60
46091;DHT22;31826;53.572;10.170;2023-06-01T15:00:38;18.70;90.70
46091;DHT22;31826;53.572;10.170;2023-06-01T15:03:04;18.80;91.30
46091;DHT22;31826;53.572;10.170;2023-06-01T15:05:31;19.00;91.30
46091;DHT22;31826;53.572;10.170;2023-06-01T15:07:57;19.40;91.40
46091;DHT22;31826;53.572;10.170;2023-06-01T15:10:22;19.50;90.80
46091;DHT22;31826;53.572;10.170;2023-06-01T15:12:48;19.50;90.10
46091;DHT22;31826;53.572;10.170;2023-06-01T15:15:14;18.90;91.40
46091;DHT22;31826;53.572;10.170;2023-06-01T15:17:40;18.70;90.70
46091;DHT22;31826;53.572;10.170;2023-06-01T15:20:06;18.30;91.60
46091;DHT22;31826;53.572;10.170;2023-06-01T15:22:33;18.50;91.10
46091;DHT22;31826;53.572;10.170;2023-06-01T15:24:58;18.50;90.40
46091;DHT22;31826;53.572;10.170;2023-06-01T15:27:24;18.60;91.70
46091;DHT22;31826;53.572;10.170;2023-06-01T15:29:50;18.70;91.10
46091;DHT22;31826;53.572;10.170;2023-06-01T15:32:16;18.30;90.70
46091;DHT22;31826;53.572;10.170;2023-06-01T15:34:41;18.10;91.40
46091;DHT22;31826;53.572;10.170;2023-06-01T15:37:08;18.20;91.30
46091;DHT22;31826;53.572;10.170;2023-06-01T15:39:34;18.40;91.50
46091;DHT22;31826;53.572;10.170;2023-06-01T15:42:03;18.40;91.30